Time;durP1;ratioP1;P1;durP2;ratioP2;P2;SDS_P1;SDS_P2;PMS_P1;PMS_P2;Temp;Humidity;BMP_temperature;BMP_pressure;BME280_temperature;BME280_humidity;BME280_pressure;Samples;Min_cycle;Max_cycle;Signal;HPM_P1;HPM_P2
2021/01/12 00:02:01;;;;;;;31.70;19.77;;;4.10;97.40;;;;;;5009692;28;20100;-67
2021/01/12 00:04:27;;;;;;;33.25;21.98;;;4.10;97.30;;;;;;5005109;28;20580;-67
2021/01/12 00:06:52;;;;;;;28.23;18.08;;;4.10;97.30;;;;;;5006914;28;20162;-67
2021/01/12 00:09:18;;;;;;;31.58;20.65;;;4.10;97.30;;;;;;5009440;28;20108;-67
2021/01/12 00:11:44;;;;;;;29.77;17.65;;;4.20;97.30;;;;;;5006924;28;20341;-67
2021/01/12 00:14:30;;;;;;;32.92;21.30;;;4.20;97.40;;;;;;5004033;28;20022;-67
2021/01/12 00:16:55;;;;;;;33.85;21.55;;;4.20;97.40;;;;;;5000584;28;20564;-68
2021/01/12 00:19:20;;;;;;;32.25;20.35;;;4.30;97.30;;;;;;4991995;28;20034;-67
2021/01/12 00:21:46;;;;;;;31.95;20.42;;;4.30;97.30;;;;;;5003037;28;20026;-67
2021/01/12 00:24:12;;;;;;;31.85;18.88;;;4.40;97.20;;;;;;5004801;28;20058;-67
2021/01/12 00:26:37;;;;;;;32.42;20.10;;;4.30;97.40;;;;;;5009502;28;20026;-68
2021/01/12 00:29:03;;;;;;;33.42;21.45;;;4.40;97.30;;;;;;5004509;28;20326;-67
2021/01/12 00:31:28;;;;;;;29.10;18.80;;;4.30;97.40;;;;;;5037733;23;20136;-68
2021/01/12 00:33:54;;;;;;;32.35;20.02;;;4.40;97.40;;;;;;5030010;28;20083;-66
2021/01/12 00:36:19;;;;;;;29.85;18.95;;;4.40;97.50;;;;;;5028609;28;20049;-65
2021/01/12 00:38:45;;;;;;;28.63;20.00;;;4.50;97.40;;;;;;5024364;28;20026;-69
2021/01/12 00:41:11;;;;;;;31.45;19.30;;;4.50;97.30;;;;;;5011023;28;20041;-68
2021/01/12 00:43:36;;;;;;;28.80;17.90;;;4.50;97.40;;;;;;4989158;28;20071;-69
2021/01/12 00:46:05;;;;;;;30.10;19.42;;;4.50;97.40;;;;;;5005977;28;20026;-69
2021/01/12 00:48:31;;;;;;;28.85;17.92;;;4.60;97.20;;;;;;5006105;28;20511;-68
2021/01/12 00:50:57;;;;;;;28.30;18.52;;;4.60;97.10;;;;;;5007105;28;20112;-70
2021/01/12 00:53:22;;;;;;;27.80;16.15;;;4.60;97.30;;;;;;5007106;28;20026;-68
2021/01/12 00:55:48;;;;;;;30.10;18.58;;;4.60;97.20;;;;;;5007719;28;20064;-68
2021/01/12 00:58:13;;;;;;;29.10;17.73;;;4.60;97.30;;;;;;5005601;28;20124;-68
2021/01/12 01:00:39;;;;;;;26.63;17.98;;;4.60;97.30;;;;;;5008005;28;20084;-69
2021/01/12 01:03:04;;;;;;;27.92;17.35;;;4.70;97.40;;;;;;5006906;28;20510;-69
2021/01/12 01:05:30;;;;;;;22.58;14.95;;;4.70;97.40;;;;;;5007914;28;20026;-69
2021/01/12 01:07:56;;;;;;;26.25;17.67;;;4.80;97.20;;;;;;5003625;28;20514;-70
2021/01/12 01:10:21;;;;;;;27.65;17.50;;;4.80;97.20;;;;;;5005694;28;20103;-70
2021/01/12 01:12:47;;;;;;;30.00;17.50;;;4.70;97.30;;;;;;5006413;28;20030;-68
2021/01/12 01:15:13;;;;;;;27.75;18.30;;;4.70;97.50;;;;;;5007431;28;20034;-70
2021/01/12 01:17:38;;;;;;;26.30;17.10;;;4.70;97.40;;;;;;5007881;28;20034;-69
2021/01/12 01:20:05;;;;;;;25.27;16.95;;;4.80;97.30;;;;;;5005360;28;20030;-68
2021/01/12 01:22:30;;;;;;;25.50;17.17;;;4.80;97.30;;;;;;5007344;28;20536;-68
2021/01/12 01:24:56;;;;;;;23.88;16.15;;;4.80;97.40;;;;;;4997619;28;20119;-65
2021/01/12 01:27:21;;;;;;;24.85;16.05;;;4.80;97.40;;;;;;4989622;28;20351;-66
2021/01/12 01:29:47;;;;;;;17.60;10.90;;;4.80;97.30;;;;;;5007504;28;20033;-67
2021/01/12 01:32:13;;;;;;;22.92;15.20;;;4.90;97.30;;;;;;5006766;28;20057;-68
2021/01/12 01:34:40;;;;;;;24.00;15.77;;;4.90;97.10;;;;;;5005994;28;20105;-68
2021/01/12 01:37:06;;;;;;;25.05;16.00;;;5.00;97.00;;;;;;4993782;28;20124;-68
2021/01/12 01:39:32;;;;;;;21.70;13.90;;;5.00;97.10;;;;;;5004936;28;20394;-69
2021/01/12 01:42:02;;;;;;;22.00;14.45;;;5.00;97.10;;;;;;5007256;28;20441;-68
2021/01/12 01:44:28;;;;;;;25.92;15.85;;;5.00;97.10;;;;;;5006021;28;20084;-69
2021/01/12 01:46:54;;;;;;;21.80;13.75;;;4.90;97.30;;;;;;5005971;28;20030;-68
2021/01/12 01:49:20;;;;;;;24.73;16.00;;;4.90;97.20;;;;;;5007378;28;20040;-68
2021/01/12 01:51:48;;;;;;;25.08;16.17;;;4.90;97.30;;;;;;5007100;28;20029;-69
2021/01/12 01:54:15;;;;;;;27.40;16.50;;;4.90;97.30;;;;;;5005191;28;20491;-69
2021/01/12 01:56:40;;;;;;;24.35;15.40;;;4.90;97.40;;;;;;5006056;28;20162;-69
2021/01/12 01:59:06;;;;;;;25.63;15.50;;;4.90;97.50;;;;;;5004364;28;20037;-68
2021/01/12 02:01:35;;;;;;;24.02;16.00;;;4.90;97.50;;;;;;5011743;28;20403;-66
2021/01/12 02:04:26;;;;;;;23.80;15.57;;;4.90;97.60;;;;;;5005353;28;20034;-65
2021/01/12 02:06:52;;;;;;;26.25;16.08;;;4.90;97.60;;;;;;4997306;28;20457;-69
2021/01/12 02:09:41;;;;;;;24.00;16.02;;;5.00;97.70;;;;;;5003178;28;20053;-71
2021/01/12 02:12:14;;;;;;;24.13;16.05;;;4.90;97.60;;;;;;5002318;28;20099;-67
2021/01/12 02:14:40;;;;;;;24.90;16.38;;;5.00;97.60;;;;;;4999315;28;20038;-65
2021/01/12 02:17:06;;;;;;;26.35;15.43;;;5.00;97.60;;;;;;5005188;28;20049;-67
2021/01/12 02:19:33;;;;;;;26.95;15.63;;;5.00;97.60;;;;;;5002069;28;20502;-66
2021/01/12 02:22:03;;;;;;;24.30;15.85;;;5.10;97.40;;;;;;4988478;28;20384;-66
2021/01/12 02:24:33;;;;;;;23.02;15.65;;;5.10;97.30;;;;;;5003307;28;20049;-68
2021/01/12 02:26:59;;;;;;;22.83;15.52;;;5.10;97.20;;;;;;5001687;28;20034;-66
2021/01/12 02:29:25;;;;;;;22.73;15.20;;;5.10;97.20;;;;;;4999639;28;20444;-67
2021/01/12 02:31:51;;;;;;;23.52;15.68;;;5.10;97.30;;;;;;5005645;28;20058;-66
2021/01/12 02:34:18;;;;;;;23.98;15.55;;;5.10;97.40;;;;;;5005425;28;20030;-67
2021/01/12 02:36:46;;;;;;;23.35;14.80;;;5.10;97.30;;;;;;5004398;28;20100;-66
2021/01/12 02:39:13;;;;;;;23.38;15.02;;;5.10;97.10;;;;;;4994762;28;20026;-66
2021/01/12 02:41:38;;;;;;;22.75;14.98;;;5.10;97.20;;;;;;4993569;28;20106;-66
2021/01/12 02:44:04;;;;;;;21.83;13.93;;;5.20;97.00;;;;;;4986584;28;20101;-65
2021/01/12 02:46:31;;;;;;;22.15;15.02;;;5.10;97.00;;;;;;4999362;28;20098;-67
2021/01/12 02:48:56;;;;;;;21.80;14.57;;;5.10;97.10;;;;;;5003151;28;20037;-67
2021/01/12 02:51:22;;;;;;;24.48;14.75;;;5.10;97.20;;;;;;5005710;28;20033;-67
2021/01/12 02:53:48;;;;;;;23.42;16.25;;;5.10;97.20;;;;;;5004569;28;20047;-65
2021/01/12 02:56:13;;;;;;;22.38;14.38;;;5.10;97.30;;;;;;5004711;28;20076;-68
2021/01/12 02:58:39;;;;;;;22.73;15.30;;;5.10;97.30;;;;;;5003138;28;20054;-66
2021/01/12 03:01:05;;;;;;;21.70;14.60;;;5.10;97.30;;;;;;5004548;28;20043;-67
2021/01/12 03:03:30;;;;;;;23.80;15.55;;;5.10;97.30;;;;;;5004195;28;20026;-67
2021/01/12 03:05:56;;;;;;;24.20;16.25;;;5.10;97.30;;;;;;5005258;28;20030;-66
2021/01/12 03:08:22;;;;;;;24.23;15.43;;;5.10;97.30;;;;;;5002356;28;20280;-67
2021/01/12 03:10:48;;;;;;;24.10;15.13;;;5.10;97.40;;;;;;5006641;28;20033;-66
2021/01/12 03:13:14;;;;;;;23.73;15.18;;;5.10;97.50;;;;;;4990847;28;20494;-66
2021/01/12 03:15:40;;;;;;;22.80;14.18;;;5.10;97.30;;;;;;5003427;28;20079;-67
2021/01/12 03:18:06;;;;;;;24.25;15.90;;;5.10;97.30;;;;;;4998275;28;20026;-68
2021/01/12 03:20:32;;;;;;;20.33;13.20;;;5.10;97.30;;;;;;5003728;28;20061;-66
2021/01/12 03:22:58;;;;;;;20.73;14.10;;;5.20;97.40;;;;;;5005181;28;20022;-66
2021/01/12 03:25:24;;;;;;;22.52;14.30;;;5.10;97.40;;;;;;5003085;28;20060;-68
2021/01/12 03:27:49;;;;;;;19.60;13.13;;;5.10;97.30;;;;;;5010383;28;20026;-70
2021/01/12 03:30:17;;;;;;;19.95;13.55;;;5.10;97.30;;;;;;4991752;28;20467;-68
2021/01/12 03:32:43;;;;;;;19.13;12.70;;;5.20;97.30;;;;;;5006226;28;20112;-68
2021/01/12 03:35:09;;;;;;;19.75;12.80;;;5.20;97.10;;;;;;5008926;28;20455;-70
2021/01/12 03:37:35;;;;;;;20.70;12.80;;;5.20;97.10;;;;;;5004073;28;20089;-71
2021/01/12 03:40:02;;;;;;;19.15;12.20;;;5.30;97.10;;;;;;4986269;28;20121;-69
2021/01/12 03:42:28;;;;;;;20.48;12.52;;;5.20;97.30;;;;;;5005070;28;20021;-69
2021/01/12 03:44:53;;;;;;;18.95;12.18;;;5.20;97.40;;;;;;5011808;28;20029;-68
2021/01/12 03:47:19;;;;;;;21.52;12.60;;;5.20;97.40;;;;;;5001036;28;20045;-66
2021/01/12 03:49:45;;;;;;;19.05;13.18;;;5.20;97.40;;;;;;5002104;28;20113;-68
2021/01/12 03:52:11;;;;;;;21.23;13.52;;;5.20;97.50;;;;;;5009243;28;20122;-66
2021/01/12 03:54:36;;;;;;;20.45;13.18;;;5.20;97.50;;;;;;5007675;28;20419;-64
2021/01/12 03:57:02;;;;;;;20.80;14.10;;;5.20;97.60;;;;;;5009591;28;20021;-67
2021/01/12 03:59:28;;;;;;;17.48;11.73;;;5.20;97.70;;;;;;5010975;28;20455;-66
2021/01/12 04:01:53;;;;;;;20.02;12.05;;;5.30;97.60;;;;;;5011087;28;20040;-66
2021/01/12 04:04:19;;;;;;;19.58;13.20;;;5.20;97.50;;;;;;5011213;28;20097;-66
2021/01/12 04:06:45;;;;;;;19.83;12.65;;;5.20;97.50;;;;;;5006724;28;20186;-66
2021/01/12 04:09:11;;;;;;;19.08;12.57;;;5.30;97.40;;;;;;5004738;28;20142;-66
2021/01/12 04:11:37;;;;;;;19.70;13.07;;;5.30;97.40;;;;;;5006402;28;20236;-66
2021/01/12 04:14:03;;;;;;;21.30;12.85;;;5.30;97.60;;;;;;5007359;28;20113;-66
2021/01/12 04:16:29;;;;;;;19.77;12.48;;;5.20;97.60;;;;;;5007370;28;20148;-67
2021/01/12 04:18:55;;;;;;;21.90;13.68;;;5.30;97.60;;;;;;5005196;28;20037;-65
2021/01/12 04:21:21;;;;;;;21.90;12.85;;;5.20;97.70;;;;;;5006588;28;20026;-66
2021/01/12 04:23:46;;;;;;;21.80;13.02;;;5.20;97.80;;;;;;5003146;28;20032;-66
2021/01/12 04:26:12;;;;;;;19.42;12.48;;;5.20;97.80;;;;;;5008961;28;20111;-65
2021/01/12 04:28:37;;;;;;;21.48;12.70;;;5.20;97.80;;;;;;5007496;28;20022;-69
2021/01/12 04:31:03;;;;;;;18.63;12.20;;;5.20;97.80;;;;;;5006833;28;20037;-65
2021/01/12 04:33:29;;;;;;;21.60;13.07;;;5.30;97.80;;;;;;4989997;28;20030;-66
2021/01/12 04:35:54;;;;;;;16.50;10.35;;;5.30;97.70;;;;;;5006530;28;20100;-67
2021/01/12 04:38:20;;;;;;;18.38;11.52;;;5.30;97.70;;;;;;5007291;28;20132;-67
2021/01/12 04:40:45;;;;;;;21.35;11.98;;;5.30;97.60;;;;;;5003446;28;20109;-69
2021/01/12 04:43:12;;;;;;;19.00;11.70;;;5.30;97.70;;;;;;5012971;28;20022;-66
2021/01/12 04:45:38;;;;;;;17.25;11.65;;;5.30;97.80;;;;;;5007159;28;20068;-66
2021/01/12 04:48:04;;;;;;;16.75;10.45;;;5.30;97.80;;;;;;5008058;28;20471;-66
2021/01/12 04:50:30;;;;;;;21.13;12.00;;;5.30;97.80;;;;;;5007476;28;20034;-68
2021/01/12 04:52:56;;;;;;;18.30;11.23;;;5.40;97.60;;;;;;5010166;28;20080;-68
2021/01/12 04:55:21;;;;;;;16.08;9.88;;;5.30;97.70;;;;;;5002235;28;20340;-69
2021/01/12 04:57:48;;;;;;;18.90;11.05;;;5.40;97.70;;;;;;5006159;28;20026;-65
2021/01/12 05:00:26;;;;;;;16.50;10.15;;;5.30;97.70;;;;;;5000298;28;20545;-66
2021/01/12 05:02:58;;;;;;;18.35;10.63;;;5.40;97.70;;;;;;5007201;28;20022;-66
2021/01/12 05:05:28;;;;;;;15.55;9.60;;;5.40;97.60;;;;;;5005761;28;20022;-65
2021/01/12 05:08:01;;;;;;;14.43;9.45;;;5.40;97.60;;;;;;5007779;28;20029;-65
2021/01/12 05:10:26;;;;;;;15.23;9.77;;;5.40;97.60;;;;;;5004822;28;20057;-66
2021/01/12 05:12:56;;;;;;;15.25;9.25;;;5.40;97.70;;;;;;5007811;28;20089;-67
2021/01/12 05:15:23;;;;;;;16.95;10.15;;;5.40;97.70;;;;;;5002465;28;20084;-66
2021/01/12 05:17:49;;;;;;;16.55;10.07;;;5.40;97.60;;;;;;5007418;28;20053;-65
2021/01/12 05:20:23;;;;;;;18.88;10.20;;;5.30;97.70;;;;;;5005050;28;20022;-66
2021/01/12 05:23:04;;;;;;;17.52;10.40;;;5.30;97.80;;;;;;4988105;28;20088;-67
2021/01/12 05:25:35;;;;;;;15.38;10.00;;;5.30;97.80;;;;;;5000086;28;20489;-65
2021/01/12 05:28:02;;;;;;;16.85;10.48;;;5.40;97.80;;;;;;4996380;28;20060;-66
2021/01/12 05:30:28;;;;;;;15.65;10.27;;;5.40;97.80;;;;;;5005220;28;20442;-66
2021/01/12 05:32:56;;;;;;;16.65;10.15;;;5.40;97.80;;;;;;5005969;28;20038;-71
2021/01/12 05:35:25;;;;;;;17.48;10.27;;;5.40;97.80;;;;;;5006621;28;20498;-71
2021/01/12 05:37:59;;;;;;;17.60;9.98;;;5.30;97.80;;;;;;5007456;28;20497;-71
2021/01/12 05:40:25;;;;;;;17.13;10.13;;;5.30;97.90;;;;;;4999238;28;20061;-70
2021/01/12 05:42:50;;;;;;;17.10;9.88;;;5.40;98.00;;;;;;4989042;28;20430;-71
2021/01/12 05:45:16;;;;;;;17.05;10.45;;;5.30;98.00;;;;;;5007234;28;20014;-70
2021/01/12 05:47:41;;;;;;;17.50;9.68;;;5.30;98.00;;;;;;5006415;28;20092;-71
2021/01/12 05:50:15;;;;;;;15.43;9.60;;;5.30;98.10;;;;;;5007044;28;20061;-70
2021/01/12 05:52:55;;;;;;;13.95;9.32;;;5.40;98.00;;;;;;5006897;28;20022;-68
2021/01/12 05:55:20;;;;;;;14.68;9.50;;;5.40;98.00;;;;;;5002104;28;20532;-70
2021/01/12 05:57:53;;;;;;;13.48;8.05;;;5.40;98.00;;;;;;5010432;28;20118;-68
2021/01/12 06:00:21;;;;;;;15.73;8.77;;;5.40;97.90;;;;;;4999404;28;20163;-71
2021/01/12 06:02:47;;;;;;;15.10;8.40;;;5.40;97.90;;;;;;4959305;28;20565;-69
2021/01/12 06:05:12;;;;;;;10.07;5.80;;;5.30;97.90;;;;;;4985161;28;20082;-67
2021/01/12 06:07:38;;;;;;;8.27;4.90;;;5.30;97.70;;;;;;4984451;28;20157;-65
2021/01/12 06:10:07;;;;;;;8.45;3.03;;;5.20;97.50;;;;;;4990784;28;20125;-66
2021/01/12 06:12:35;;;;;;;3.70;2.28;;;5.10;97.50;;;;;;4985288;28;20511;-66
2021/01/12 06:15:03;;;;;;;5.80;2.17;;;5.00;97.40;;;;;;4985726;28;20037;-65
2021/01/12 06:17:32;;;;;;;6.57;1.92;;;5.00;97.30;;;;;;4984571;28;20113;-66
2021/01/12 06:20:04;;;;;;;5.32;1.70;;;4.90;97.40;;;;;;4984042;28;20284;-67
2021/01/12 06:22:38;;;;;;;6.65;1.77;;;4.90;97.30;;;;;;4984260;28;20707;-66
2021/01/12 06:25:07;;;;;;;5.50;1.60;;;4.90;97.40;;;;;;4992055;28;20407;-66
2021/01/12 06:27:34;;;;;;;3.47;1.45;;;4.80;97.50;;;;;;5005944;28;20475;-66
2021/01/12 06:30:07;;;;;;;2.65;1.35;;;4.80;97.50;;;;;;5002754;28;20550;-66
2021/01/12 06:32:35;;;;;;;4.65;1.50;;;4.80;97.50;;;;;;5053473;22;20056;-68
2021/01/12 06:35:07;;;;;;;5.40;1.00;;;4.70;97.60;;;;;;5018534;28;20060;-68
2021/01/12 06:37:43;;;;;;;5.40;0.63;;;4.40;97.10;;;;;;5014676;28;20409;-68
2021/01/12 06:40:11;;;;;;;2.45;0.60;;;4.00;96.20;;;;;;5023484;28;20127;-69
2021/01/12 06:42:38;;;;;;;2.47;0.60;;;3.80;95.60;;;;;;5011119;28;20040;-68
2021/01/12 06:45:06;;;;;;;3.97;0.52;;;3.70;96.00;;;;;;5030960;28;20032;-68
2021/01/12 06:47:32;;;;;;;6.57;0.73;;;3.60;96.10;;;;;;5027771;28;20029;-69
2021/01/12 06:50:06;;;;;;;4.53;0.52;;;3.60;96.40;;;;;;5027012;28;20037;-69
2021/01/12 06:52:38;;;;;;;4.15;0.70;;;3.40;95.80;;;;;;5010867;28;20049;-67
2021/01/12 06:55:06;;;;;;;1.88;0.60;;;3.40;96.10;;;;;;5014109;28;20033;-67
2021/01/12 06:57:32;;;;;;;3.40;0.70;;;3.20;96.00;;;;;;5028900;28;20036;-68
2021/01/12 06:59:58;;;;;;;1.95;0.85;;;3.20;95.70;;;;;;5013180;28;20395;-69
2021/01/12 07:02:28;;;;;;;7.35;0.80;;;3.20;96.30;;;;;;5009324;28;20184;-70
2021/01/12 07:04:59;;;;;;;6.10;0.95;;;3.10;96.40;;;;;;5008910;28;20037;-69
2021/01/12 07:07:28;;;;;;;3.90;0.80;;;3.10;96.50;;;;;;5008601;28;20511;-66
2021/01/12 07:10:02;;;;;;;10.60;1.13;;;3.10;96.50;;;;;;5012729;28;20036;-69
2021/01/12 07:12:30;;;;;;;3.85;0.68;;;3.10;96.60;;;;;;5008462;28;20026;-68
2021/01/12 07:14:58;;;;;;;5.28;0.80;;;3.00;96.40;;;;;;5019136;28;20043;-68
2021/01/12 07:17:29;;;;;;;3.70;0.80;;;3.00;96.50;;;;;;5028255;28;20440;-69
2021/01/12 07:20:15;;;;;;;6.03;1.20;;;3.00;96.60;;;;;;5020544;28;20022;-68
2021/01/12 07:22:50;;;;;;;5.07;0.77;;;3.00;96.70;;;;;;5032492;28;20456;-69
2021/01/12 07:25:26;;;;;;;4.72;1.17;;;3.00;96.80;;;;;;5034853;28;20562;-69
2021/01/12 07:28:14;;;;;;;5.95;1.20;;;3.00;97.00;;;;;;5036550;28;20026;-68
2021/01/12 07:30:50;;;;;;;5.47;1.17;;;3.00;97.10;;;;;;5026664;28;20146;-68
2021/01/12 07:33:20;;;;;;;11.57;1.77;;;3.00;97.20;;;;;;5029374;28;20033;-69
2021/01/12 07:35:52;;;;;;;4.85;1.13;;;2.90;97.20;;;;;;5027804;28;20516;-69
2021/01/12 07:38:22;;;;;;;2.45;0.60;;;2.90;97.00;;;;;;5014023;28;20499;-69
2021/01/12 07:40:48;;;;;;;9.50;1.00;;;2.80;96.70;;;;;;5028128;28;20025;-69
2021/01/12 07:43:18;;;;;;;6.50;0.77;;;2.90;96.70;;;;;;5032462;28;20520;-69
2021/01/12 07:45:49;;;;;;;7.63;0.90;;;2.80;96.80;;;;;;5030833;28;20025;-69
2021/01/12 07:48:15;;;;;;;;;;;2.80;96.80;;;;;;5011691;28;20037;-69
2021/01/12 07:50:51;;;;;;;1.08;0.73;;;2.80;96.80;;;;;;5037813;28;19909;-69
2021/01/12 07:53:17;;;;;;;6.47;1.10;;;2.80;96.80;;;;;;5020152;28;20029;-69
2021/01/12 07:55:44;;;;;;;8.32;1.10;;;2.80;96.90;;;;;;5029823;28;20067;-69
2021/01/12 07:58:11;;;;;;;3.53;0.90;;;2.80;96.90;;;;;;5031969;28;20030;-70
2021/01/12 08:00:37;;;;;;;6.85;0.80;;;2.80;97.00;;;;;;5024656;28;20413;-69
2021/01/12 08:03:04;;;;;;;8.68;0.93;;;2.80;97.00;;;;;;5027224;28;20030;-68
2021/01/12 08:05:30;;;;;;;4.00;0.60;;;2.90;97.00;;;;;;5031107;28;20029;-68
2021/01/12 08:08:06;;;;;;;6.25;0.85;;;2.80;96.90;;;;;;5029342;28;20033;-68
2021/01/12 08:10:35;;;;;;;8.73;1.27;;;2.80;96.90;;;;;;5009598;28;20037;-68
2021/01/12 08:13:03;;;;;;;9.85;1.40;;;2.80;96.70;;;;;;5031513;28;20033;-69
2021/01/12 08:15:29;;;;;;;8.65;1.13;;;2.80;96.70;;;;;;5026226;28;20025;-69
2021/01/12 08:17:55;;;;;;;11.27;1.98;;;2.80;96.70;;;;;;5029728;28;20241;-68
2021/01/12 08:20:20;;;;;;;6.85;1.40;;;2.80;96.80;;;;;;5039542;28;20369;-68
2021/01/12 08:22:55;;;;;;;5.50;1.35;;;2.80;96.80;;;;;;5021135;28;20025;-69
2021/01/12 08:25:22;;;;;;;6.00;1.90;;;2.80;96.70;;;;;;5035790;28;20026;-68
2021/01/12 08:28:00;;;;;;;10.48;1.55;;;2.80;96.80;;;;;;5030812;28;20063;-69
2021/01/12 08:30:28;;;;;;;6.75;1.80;;;2.80;96.80;;;;;;5029760;28;20116;-68
2021/01/12 08:33:24;;;;;;;8.77;1.40;;;2.80;97.00;;;;;;5040863;28;20032;-68
2021/01/12 08:35:59;;;;;;;6.35;1.40;;;2.80;96.90;;;;;;5024501;28;20029;-68
2021/01/12 08:38:27;;;;;;;6.50;1.70;;;2.80;96.80;;;;;;5031170;28;20033;-68
2021/01/12 08:40:54;;;;;;;5.40;1.55;;;2.90;96.50;;;;;;5011182;28;20021;-69
2021/01/12 08:43:27;;;;;;;9.07;1.40;;;2.80;96.60;;;;;;5037247;28;20148;-68
2021/01/12 08:45:57;;;;;;;8.82;1.42;;;2.80;96.40;;;;;;5029437;28;20021;-68
2021/01/12 08:48:22;;;;;;;7.05;1.30;;;2.90;96.20;;;;;;5029895;28;20389;-69
2021/01/12 08:50:48;;;;;;;9.55;1.60;;;2.90;96.30;;;;;;5028378;28;20038;-68
2021/01/12 08:53:17;;;;;;;6.05;1.17;;;2.90;96.40;;;;;;5026910;28;20025;-68
2021/01/12 08:55:43;;;;;;;5.72;1.20;;;2.90;95.90;;;;;;5026815;28;20113;-68
2021/01/12 08:58:10;;;;;;;6.25;1.20;;;2.90;95.90;;;;;;5028936;28;20037;-68
2021/01/12 09:00:40;;;;;;;5.10;1.08;;;2.90;95.90;;;;;;5028775;28;20119;-69
2021/01/12 09:03:07;;;;;;;5.82;1.10;;;2.90;96.00;;;;;;5029350;28;20025;-69
2021/01/12 09:05:38;;;;;;;7.45;1.17;;;2.90;96.10;;;;;;5012628;28;20021;-68
2021/01/12 09:08:05;;;;;;;4.60;0.90;;;2.90;96.10;;;;;;5011183;28;20025;-68
2021/01/12 09:10:32;;;;;;;10.00;1.40;;;3.00;96.20;;;;;;5024509;28;20102;-68
2021/01/12 09:12:58;;;;;;;9.40;1.08;;;3.00;96.20;;;;;;5028768;28;20493;-68
2021/01/12 09:15:26;;;;;;;8.45;1.50;;;3.00;96.30;;;;;;5027296;28;20036;-69
2021/01/12 09:18:05;;;;;;;9.32;1.27;;;3.00;96.30;;;;;;5029434;28;20032;-68
2021/01/12 09:20:31;;;;;;;5.90;1.05;;;3.10;96.40;;;;;;5021456;28;20262;-68
2021/01/12 09:23:08;;;;;;;7.22;1.15;;;3.10;96.50;;;;;;5024198;28;20359;-69
2021/01/12 09:25:35;;;;;;;5.38;1.00;;;3.10;96.60;;;;;;5024408;28;20052;-69
2021/01/12 09:28:16;;;;;;;7.30;1.50;;;3.10;96.40;;;;;;5026488;28;20025;-69
2021/01/12 09:30:43;;;;;;;8.13;1.50;;;3.20;96.70;;;;;;5028012;28;20022;-69
2021/01/12 09:33:13;;;;;;;13.38;1.50;;;3.20;96.70;;;;;;5028256;28;20485;-68
2021/01/12 09:35:38;;;;;;;7.15;1.60;;;3.20;96.80;;;;;;5016547;28;20053;-69
2021/01/12 09:38:04;;;;;;;7.38;1.17;;;3.30;96.90;;;;;;5009900;28;20596;-69
2021/01/12 09:40:31;;;;;;;6.05;1.38;;;3.20;96.80;;;;;;5027682;28;20421;-70
2021/01/12 09:42:59;;;;;;;5.00;1.35;;;3.30;96.80;;;;;;5027233;28;20109;-69
2021/01/12 09:45:26;;;;;;;8.20;1.58;;;3.30;96.80;;;;;;5028135;28;20029;-69
2021/01/12 09:47:52;;;;;;;10.40;1.88;;;3.30;96.70;;;;;;5026413;28;20108;-68
2021/01/12 09:50:17;;;;;;;7.65;1.50;;;3.30;96.80;;;;;;5028517;28;20638;-69
2021/01/12 09:52:43;;;;;;;14.60;1.67;;;3.30;96.50;;;;;;5021493;28;20025;-68
2021/01/12 09:55:09;;;;;;;12.80;1.63;;;3.40;96.60;;;;;;5028385;28;20098;-68
2021/01/12 09:57:36;;;;;;;8.77;1.20;;;3.30;96.50;;;;;;5028967;28;20064;-69
2021/01/12 10:00:05;;;;;;;7.60;1.40;;;3.20;96.20;;;;;;5027889;28;20087;-69
2021/01/12 10:02:32;;;;;;;7.55;1.38;;;3.20;96.40;;;;;;5024944;28;20021;-69
2021/01/12 10:04:58;;;;;;;11.35;1.35;;;3.20;96.50;;;;;;5027726;28;20045;-69
2021/01/12 10:07:23;;;;;;;10.70;1.38;;;3.20;96.60;;;;;;5025897;28;20060;-69
2021/01/12 10:09:49;;;;;;;9.45;1.30;;;3.20;96.70;;;;;;5028902;28;20040;-68
2021/01/12 10:12:15;;;;;;;12.60;1.48;;;3.30;96.70;;;;;;5021319;28;20041;-68
2021/01/12 10:14:40;;;;;;;12.52;1.63;;;3.30;96.60;;;;;;5028892;28;20029;-69
2021/01/12 10:17:08;;;;;;;10.55;1.48;;;3.30;96.50;;;;;;5026336;28;20080;-69
2021/01/12 10:19:34;;;;;;;11.10;1.75;;;3.30;96.50;;;;;;5026893;28;20029;-69
2021/01/12 10:21:59;;;;;;;9.90;1.80;;;3.20;96.40;;;;;;5025423;28;20528;-69
2021/01/12 10:24:25;;;;;;;8.27;1.40;;;3.10;96.10;;;;;;5026921;28;20064;-69
2021/01/12 10:26:54;;;;;;;11.57;1.58;;;3.10;96.00;;;;;;5027879;28;20106;-69
2021/01/12 10:29:26;;;;;;;11.48;1.65;;;3.00;96.00;;;;;;5025240;28;20040;-69
2021/01/12 10:31:52;;;;;;;11.02;1.30;;;3.10;95.70;;;;;;5022426;28;20032;-69
2021/01/12 10:34:18;;;;;;;13.80;1.52;;;3.10;95.20;;;;;;5028490;28;20118;-69
2021/01/12 10:36:49;;;;;;;10.95;1.45;;;3.30;95.10;;;;;;5025867;28;20033;-69
2021/01/12 10:39:14;;;;;;;7.57;1.92;;;3.40;95.40;;;;;;5028193;28;20406;-69
2021/01/12 10:41:40;;;;;;;11.18;1.75;;;3.50;95.00;;;;;;5028792;28;20036;-69
2021/01/12 10:44:06;;;;;;;12.88;1.35;;;3.60;94.40;;;;;;5017520;28;20034;-69
2021/01/12 10:46:32;;;;;;;7.50;1.35;;;3.60;94.30;;;;;;5023576;28;20474;-69
2021/01/12 10:48:58;;;;;;;7.60;1.38;;;3.70;94.10;;;;;;5027533;28;20037;-68
2021/01/12 10:51:23;;;;;;;9.00;1.73;;;3.80;92.60;;;;;;5027498;28;20116;-70
2021/01/12 10:53:49;;;;;;;8.57;1.70;;;3.80;92.70;;;;;;5026402;28;20079;-68
2021/01/12 10:56:15;;;;;;;5.60;1.52;;;4.00;92.50;;;;;;5024994;28;20034;-69
2021/01/12 10:58:41;;;;;;;11.23;1.55;;;4.10;92.10;;;;;;5022468;28;20030;-69
2021/01/12 11:01:07;;;;;;;9.45;1.42;;;4.20;92.20;;;;;;5025278;28;20397;-69
2021/01/12 11:03:32;;;;;;;6.38;1.20;;;4.40;91.00;;;;;;5007876;28;20017;-68
2021/01/12 11:05:58;;;;;;;6.57;1.15;;;4.30;90.80;;;;;;5028449;28;20110;-69
2021/01/12 11:08:25;;;;;;;12.38;1.45;;;4.20;91.00;;;;;;5030834;28;20021;-69
2021/01/12 11:10:51;;;;;;;9.30;1.40;;;4.20;90.20;;;;;;5026341;28;20069;-69
2021/01/12 11:13:17;;;;;;;2.67;0.73;;;4.20;90.50;;;;;;5027936;28;20429;-68
2021/01/12 11:15:44;;;;;;;8.93;1.65;;;4.20;89.50;;;;;;5026890;28;20025;-69
2021/01/12 11:18:10;;;;;;;8.50;1.50;;;4.30;88.90;;;;;;5026288;28;20057;-69
2021/01/12 11:20:36;;;;;;;7.93;1.52;;;4.50;87.60;;;;;;5009434;28;20064;-69
2021/01/12 11:23:01;;;;;;;11.05;2.20;;;4.60;86.90;;;;;;5027060;28;20057;-68
2021/01/12 11:25:28;;;;;;;5.72;1.27;;;4.60;87.20;;;;;;5034340;28;20025;-69
2021/01/12 11:27:53;;;;;;;7.25;1.52;;;4.60;85.00;;;;;;5027756;28;20026;-69
2021/01/12 11:30:19;;;;;;;8.73;1.25;;;4.60;86.40;;;;;;5022776;28;20439;-69
2021/01/12 11:32:46;;;;;;;8.15;1.30;;;4.60;87.30;;;;;;5006139;28;20553;-69
2021/01/12 11:35:11;;;;;;;9.50;1.30;;;4.60;87.10;;;;;;5036705;28;20032;-69
2021/01/12 11:37:37;;;;;;;3.80;1.15;;;4.60;88.20;;;;;;5019325;28;20029;-69
2021/01/12 11:40:06;;;;;;;7.25;1.23;;;4.60;87.40;;;;;;5030526;28;20041;-69
2021/01/12 11:42:31;;;;;;;8.82;1.13;;;4.70;86.90;;;;;;5033192;28;20124;-69
2021/01/12 11:44:57;;;;;;;5.30;1.13;;;4.70;85.10;;;;;;5032879;28;20527;-69
2021/01/12 11:47:22;;;;;;;10.70;1.33;;;4.80;85.20;;;;;;5026926;28;20068;-69
2021/01/12 11:49:48;;;;;;;9.25;1.35;;;4.80;85.00;;;;;;5023915;28;20038;-69
2021/01/12 11:52:15;;;;;;;14.48;1.23;;;4.90;86.10;;;;;;5025870;28;20091;-70
2021/01/12 11:54:41;;;;;;;8.90;1.20;;;5.00;86.50;;;;;;5022458;28;20057;-69
2021/01/12 11:57:09;;;;;;;5.60;1.00;;;5.00;84.90;;;;;;5025862;28;20119;-69
2021/01/12 11:59:35;;;;;;;4.40;1.17;;;5.10;85.40;;;;;;5025606;28;20044;-69
2021/01/12 12:02:01;;;;;;;4.60;1.00;;;5.10;84.90;;;;;;5015385;28;20385;-69
2021/01/12 12:04:27;;;;;;;6.70;1.10;;;5.20;83.70;;;;;;5019449;28;20039;-69
2021/01/12 12:06:54;;;;;;;5.40;1.25;;;5.30;86.10;;;;;;5021039;28;20462;-69
2021/01/12 12:09:21;;;;;;;6.50;1.00;;;5.50;84.10;;;;;;5028492;28;20029;-69
2021/01/12 12:11:48;;;;;;;5.47;1.27;;;5.50;82.30;;;;;;5028329;28;20123;-69
2021/01/12 12:14:14;;;;;;;6.45;1.33;;;5.60;81.90;;;;;;5028269;28;20116;-70
2021/01/12 12:16:45;;;;;;;5.80;1.50;;;5.40;81.50;;;;;;5020491;28;20557;-69
2021/01/12 12:19:13;;;;;;;7.95;1.23;;;5.60;83.20;;;;;;5026795;28;20099;-69
2021/01/12 12:21:46;;;;;;;5.65;1.10;;;5.60;83.10;;;;;;5023993;28;20119;-69
2021/01/12 12:24:15;;;;;;;8.77;1.30;;;5.60;81.50;;;;;;5023709;28;20029;-69
2021/01/12 12:26:41;;;;;;;7.63;1.35;;;5.40;83.70;;;;;;5026677;28;20478;-69
2021/01/12 12:29:06;;;;;;;6.38;0.90;;;5.60;82.80;;;;;;5030123;28;20034;-69
2021/01/12 12:31:32;;;;;;;9.10;0.95;;;5.60;83.10;;;;;;5040433;22;20021;-66
2021/01/12 12:33:57;;;;;;;4.53;0.98;;;5.60;82.70;;;;;;5002560;28;20029;-67
2021/01/12 12:36:23;;;;;;;4.15;1.00;;;5.70;80.80;;;;;;5003348;28;20018;-68
2021/01/12 12:38:49;;;;;;;8.90;1.23;;;5.70;81.60;;;;;;5006072;28;20414;-68
2021/01/12 12:41:16;;;;;;;6.18;1.05;;;5.80;83.00;;;;;;5001557;28;20495;-66
2021/01/12 12:43:42;;;;;;;5.32;1.00;;;5.60;80.40;;;;;;4980906;28;20137;-68
2021/01/12 12:46:09;;;;;;;5.38;0.73;;;5.40;80.30;;;;;;4978113;28;20053;-68
2021/01/12 12:48:35;;;;;;;6.20;1.08;;;5.30;81.80;;;;;;4983147;28;20034;-68
2021/01/12 12:51:01;;;;;;;8.93;1.10;;;5.10;82.40;;;;;;4978079;28;20052;-68